createdAt,value
2022-09-14T00:01:25.737Z,16.30
2022-09-14T00:06:48.627Z,16.20
2022-09-14T00:12:10.746Z,16.23
2022-09-14T00:17:32.619Z,16.18
2022-09-14T00:22:54.629Z,16.15
2022-09-14T00:28:16.441Z,16.08
2022-09-14T00:33:38.417Z,15.95
2022-09-14T00:39:00.242Z,15.71
2022-09-14T00:44:45.299Z,15.60
2022-09-14T00:50:07.779Z,15.46
2022-09-14T00:55:29.693Z,15.38
2022-09-14T01:00:51.523Z,15.27
2022-09-14T01:06:31.671Z,15.09
2022-09-14T01:12:20.019Z,14.90
2022-09-14T01:18:00.574Z,14.95
2022-09-14T01:23:47.284Z,14.97
2022-09-14T01:29:16.521Z,15.03
2022-09-14T01:34:59.541Z,15.11
2022-09-14T01:40:43.883Z,15.11
2022-09-14T01:46:15.008Z,15.09
2022-09-14T01:51:47.874Z,15.05
2022-09-14T01:57:18.165Z,14.94
2022-09-14T02:02:44.601Z,14.75
2022-09-14T02:08:06.758Z,14.36
2022-09-14T02:13:29.284Z,14.65
2022-09-14T02:18:51.373Z,14.69
2022-09-14T02:24:14.308Z,14.80
2022-09-14T02:29:36.548Z,14.82
2022-09-14T02:35:18.173Z,14.74
2022-09-14T02:40:56.304Z,14.73
2022-09-14T02:46:33.149Z,14.78
2022-09-14T02:51:54.973Z,14.83
2022-09-14T02:57:17.039Z,14.86
2022-09-14T03:02:38.832Z,14.95
2022-09-14T03:08:01.620Z,15.03
2022-09-14T03:13:23.902Z,15.19
2022-09-14T03:18:45.760Z,15.21
2022-09-14T03:24:07.595Z,15.20
2022-09-14T03:29:29.369Z,15.20
2022-09-14T03:34:51.231Z,15.17
2022-09-14T03:40:19.289Z,15.11
2022-09-14T03:45:43.347Z,15.11
2022-09-14T03:51:06.985Z,15.04
2022-09-14T03:56:28.790Z,15.01
2022-09-14T04:01:50.717Z,15.11
2022-09-14T04:07:12.564Z,15.06
2022-09-14T04:12:38.465Z,15.08
2022-09-14T04:18:00.290Z,15.15
2022-09-14T04:23:22.239Z,15.19
2022-09-14T04:28:44.601Z,15.40
2022-09-14T04:34:07.132Z,15.58
2022-09-14T04:39:28.889Z,15.74
2022-09-14T04:44:50.739Z,16.20
2022-09-14T04:50:12.581Z,19.01
2022-09-14T04:55:34.413Z,20.13
2022-09-14T05:01:02.602Z,18.40
2022-09-14T05:06:30.209Z,17.72
2022-09-14T05:11:52.069Z,17.40
2022-09-14T05:17:13.928Z,17.13
2022-09-14T05:22:35.749Z,16.91
2022-09-14T05:27:57.593Z,17.12
2022-09-14T05:33:20.023Z,19.88
2022-09-14T05:38:42.729Z,21.18
2022-09-14T05:44:05.768Z,21.05
2022-09-14T05:49:27.591Z,19.87
2022-09-14T05:54:49.615Z,21.43
2022-09-14T06:00:12.021Z,23.47
2022-09-14T06:05:33.837Z,20.99
2022-09-14T06:10:55.654Z,21.00
2022-09-14T06:16:20.448Z,20.44
2022-09-14T06:21:42.622Z,19.21
2022-09-14T06:27:04.619Z,18.90
2022-09-14T06:32:26.477Z,18.34
2022-09-14T06:37:48.248Z,17.98
2022-09-14T06:43:10.044Z,17.98
2022-09-14T06:48:34.668Z,17.60
2022-09-14T06:53:58.231Z,17.53
2022-09-14T06:59:20.304Z,17.61
2022-09-14T07:04:42.150Z,17.44
2022-09-14T07:10:04.327Z,17.44
2022-09-14T07:15:26.457Z,17.19
2022-09-14T07:20:49.637Z,17.48
2022-09-14T07:26:23.373Z,17.84
2022-09-14T07:31:50.732Z,18.36
2022-09-14T07:37:12.879Z,22.41
2022-09-14T07:42:36.548Z,24.48
2022-09-14T07:47:58.356Z,24.31
2022-09-14T07:53:21.398Z,23.70
2022-09-14T07:58:44.461Z,26.75
2022-09-14T08:04:06.637Z,26.69
2022-09-14T08:09:28.491Z,28.39
2022-09-14T08:14:50.437Z,29.88
2022-09-14T08:20:12.196Z,30.34
2022-09-14T08:25:34.013Z,31.96
2022-09-14T08:30:55.860Z,30.82
2022-09-14T08:36:19.974Z,32.55
2022-09-14T08:41:59.192Z,32.22
2022-09-14T08:47:27.312Z,29.95
2022-09-14T08:52:54.345Z,30.60
2022-09-14T08:58:43.990Z,31.42
2022-09-14T09:04:33.230Z,30.53
2022-09-14T09:09:57.668Z,31.01
2022-09-14T09:15:32.538Z,31.49
2022-09-14T09:21:23.833Z,29.66
2022-09-14T09:26:45.612Z,27.26
2022-09-14T09:32:23.438Z,24.27
2022-09-14T09:37:45.662Z,24.06
2022-09-14T09:43:21.176Z,25.05
2022-09-14T09:48:50.828Z,26.19
2022-09-14T09:54:12.582Z,24.24
2022-09-14T09:59:39.793Z,23.40
2022-09-14T10:05:10.342Z,24.81
2022-09-14T10:10:34.900Z,24.51
2022-09-14T10:16:17.623Z,24.61
2022-09-14T10:22:21.847Z,24.14
2022-09-14T10:27:55.003Z,24.48
2022-09-14T10:33:17.231Z,24.10
2022-09-14T10:38:44.525Z,23.10
2022-09-14T10:44:22.288Z,23.06
2022-09-14T10:50:21.406Z,23.16
2022-09-14T10:55:47.460Z,23.26
2022-09-14T11:01:18.200Z,23.01
2022-09-14T11:07:01.620Z,23.30
2022-09-14T11:12:36.240Z,23.23
2022-09-14T11:18:06.741Z,22.55
2022-09-14T11:24:03.521Z,22.78
2022-09-14T11:29:37.537Z,22.98
2022-09-14T11:35:11.675Z,22.80
2022-09-14T11:40:40.275Z,22.87
2022-09-14T11:46:32.541Z,22.44
2022-09-14T11:52:03.832Z,22.64
2022-09-14T11:57:31.038Z,22.39
2022-09-14T12:03:34.584Z,22.18
2022-09-14T12:09:16.588Z,22.24
2022-09-14T12:14:40.527Z,21.95
2022-09-14T12:20:28.237Z,21.40
2022-09-14T12:25:58.504Z,22.08
2022-09-14T12:31:34.456Z,22.07
2022-09-14T12:36:57.305Z,22.30
2022-09-14T12:42:30.300Z,21.55
2022-09-14T12:47:52.354Z,21.85
2022-09-14T12:53:33.489Z,22.13
2022-09-14T12:59:29.273Z,22.14
2022-09-14T13:04:56.553Z,21.89
2022-09-14T13:10:32.738Z,21.78
2022-09-14T13:15:57.892Z,21.70
2022-09-14T13:21:22.865Z,21.66
2022-09-14T13:26:44.773Z,21.70
2022-09-14T13:32:06.814Z,21.78
2022-09-14T13:37:29.036Z,21.45
2022-09-14T13:42:51.214Z,21.71
2022-09-14T13:48:15.628Z,21.76
2022-09-14T13:53:50.692Z,21.52
2022-09-14T13:59:21.090Z,21.26
2022-09-14T14:04:48.401Z,21.35
2022-09-14T14:10:23.812Z,21.35
2022-09-14T14:21:35.547Z,21.47
2022-09-14T14:26:58.091Z,21.53
2022-09-14T14:32:19.919Z,21.32
2022-09-14T14:37:41.721Z,21.43
2022-09-14T14:43:05.055Z,21.42
2022-09-14T14:48:28.711Z,21.19
2022-09-14T14:53:50.454Z,20.91
2022-09-14T14:59:21.199Z,20.79
2022-09-14T15:04:42.978Z,20.78
2022-09-14T15:10:06.385Z,20.73
2022-09-14T15:15:28.219Z,20.92
2022-09-14T15:20:49.985Z,20.68
2022-09-14T15:26:11.732Z,20.54
2022-09-14T15:31:33.589Z,20.37
2022-09-14T15:36:55.531Z,20.35
2022-09-14T15:42:18.667Z,20.42
2022-09-14T15:47:42.461Z,20.09
2022-09-14T15:53:04.202Z,20.16
2022-09-14T15:58:26.181Z,19.83
2022-09-14T16:03:48.199Z,19.68
2022-09-14T16:09:11.498Z,19.59
2022-09-14T16:14:33.592Z,19.42
2022-09-14T16:19:55.656Z,19.36
2022-09-14T16:25:17.583Z,19.16
2022-09-14T16:30:39.322Z,19.13
2022-09-14T16:36:13.062Z,19.13
2022-09-14T16:41:35.299Z,19.03
2022-09-14T16:46:58.189Z,18.96
2022-09-14T16:52:20.128Z,18.85
2022-09-14T16:57:41.920Z,18.67
2022-09-14T17:03:03.766Z,18.52
2022-09-14T17:08:25.541Z,18.46
2022-09-14T17:13:47.332Z,18.35
2022-09-14T17:19:10.938Z,18.23
2022-09-14T17:24:32.765Z,18.20
2022-09-14T17:29:54.505Z,18.16
2022-09-14T17:35:16.593Z,18.03
2022-09-14T17:40:38.425Z,18.02
2022-09-14T17:46:01.048Z,18.01
2022-09-14T17:51:25.033Z,17.88
2022-09-14T17:56:47.444Z,17.78
2022-09-14T18:02:09.758Z,17.45
2022-09-14T18:07:31.593Z,17.65
2022-09-14T18:12:53.400Z,17.58
2022-09-14T18:18:15.548Z,17.47
2022-09-14T18:23:38.194Z,17.42
2022-09-14T18:29:00.409Z,17.39
2022-09-14T18:34:25.500Z,17.28
2022-09-14T18:39:47.422Z,17.30
2022-09-14T18:45:09.734Z,17.27
2022-09-14T18:50:31.617Z,17.19
2022-09-14T18:55:53.363Z,17.11
2022-09-14T19:01:15.602Z,17.08
2022-09-14T19:06:39.171Z,17.15
2022-09-14T19:12:01.555Z,17.16
2022-09-14T19:17:23.564Z,16.90
2022-09-14T19:22:45.571Z,16.93
2022-09-14T19:28:07.614Z,16.87
2022-09-14T19:33:30.754Z,16.75
2022-09-14T19:38:52.626Z,16.71
2022-09-14T19:44:15.276Z,16.75
2022-09-14T19:49:37.098Z,16.58
2022-09-14T19:54:58.892Z,16.58
2022-09-14T20:00:20.654Z,16.55
2022-09-14T20:05:42.416Z,16.52
2022-09-14T20:11:09.699Z,16.54
2022-09-14T20:16:37.157Z,16.57
2022-09-14T20:21:58.933Z,16.46
2022-09-14T20:27:20.737Z,16.34
2022-09-14T20:32:42.504Z,16.43
2022-09-14T20:38:04.260Z,16.41
2022-09-14T20:43:26.838Z,16.33
2022-09-14T20:48:49.545Z,16.36
2022-09-14T20:54:14.639Z,16.32
2022-09-14T20:59:36.422Z,16.36
2022-09-14T21:04:58.197Z,16.30
2022-09-14T21:10:20.213Z,16.26
2022-09-14T21:15:42.055Z,16.05
2022-09-14T21:21:06.153Z,16.09
2022-09-14T21:26:29.687Z,15.93
2022-09-14T21:31:52.406Z,15.99
2022-09-14T21:37:14.565Z,15.98
2022-09-14T21:42:36.335Z,15.91
2022-09-14T21:47:58.083Z,15.92
2022-09-14T21:53:20.107Z,15.85
2022-09-14T21:58:42.005Z,15.86
2022-09-14T22:04:04.665Z,15.84
2022-09-14T22:09:28.357Z,15.86
2022-09-14T22:14:50.137Z,15.68
2022-09-14T22:20:11.902Z,15.70
2022-09-14T22:25:33.660Z,15.64
2022-09-14T22:30:55.475Z,15.62
2022-09-14T22:36:17.467Z,15.47
2022-09-14T22:41:39.941Z,15.53
2022-09-14T22:47:01.725Z,15.55
2022-09-14T22:52:23.646Z,15.59
2022-09-14T22:57:45.444Z,15.72
2022-09-14T23:03:08.669Z,15.76
2022-09-14T23:08:31.300Z,15.60
2022-09-14T23:13:53.352Z,15.58
2022-09-14T23:19:17.439Z,15.56
2022-09-14T23:24:39.189Z,15.62
2022-09-14T23:30:01.328Z,15.56
2022-09-14T23:35:23.127Z,15.53
2022-09-14T23:40:44.993Z,15.43
2022-09-14T23:46:06.815Z,15.45
2022-09-14T23:51:28.689Z,15.35
2022-09-14T23:56:50.508Z,15.34
